Terminal Aerodrome Forecast
Issued by NWS

Home | Current Version | Previous Version | Graphics & Text | Print | Product List | Glossary On
Versions: 1 2 3 4 5 6 7 8 9 10 11 12 13 14
939
FTUS45 KGGW 262333
TAFSDY
TAF
KSDY 262333Z 2700/2724 05008KT P6SM VCSH SCT050
     FM270600 06004KT P6SM VCTS SCT100CB
     FM270900 04004KT P6SM VCSH BKN100 PROB30 2709/2712 6SM TS
      OVC040CB
     FM271200 06004KT P6SM VCSH BKN090 PROB30 2712/2715 2SM TS
      OVC040CB
     FM271500 10004KT P6SM VCSH BKN070 PROB30 2721/2724 6SM TS
      OVC025CB=

USA.gov is the U.S. government's official web portal to all federal, state and local government web resources and services.